Time;durP1;ratioP1;P1;durP2;ratioP2;P2;SDS_P1;SDS_P2;PMS_P1;PMS_P2;Temp;Humidity;BMP_temperature;BMP_pressure;BME280_temperature;BME280_humidity;BME280_pressure;Samples;Min_cycle;Max_cycle;Signal;HPM_P1;HPM_P2
2021/11/23 00:01:12;;;;;;;20.67;13.93;;;;;;;9.29;100.00;93036.97;5027987;28;20045;-79
2021/11/23 00:03:39;;;;;;;20.35;12.90;;;;;;;9.30;100.00;93038.53;5028133;28;20057;-79
2021/11/23 00:06:06;;;;;;;18.77;12.65;;;;;;;9.40;100.00;93050.91;5028506;28;20052;-78
2021/11/23 00:08:34;;;;;;;18.33;12.15;;;;;;;9.37;100.00;93048.75;5027596;28;20044;-79
2021/11/23 00:11:01;;;;;;;18.75;12.20;;;;;;;9.31;100.00;93047.78;5027587;28;20056;-79
2021/11/23 00:13:28;;;;;;;16.30;10.65;;;;;;;9.33;100.00;93050.16;5027595;28;20049;-80
2021/11/23 00:15:54;;;;;;;14.27;10.02;;;;;;;9.31;100.00;93049.59;5027444;28;20055;-80
2021/11/23 00:18:21;;;;;;;14.27;10.23;;;;;;;9.28;100.00;93055.91;5027546;28;20053;-80
2021/11/23 00:20:48;;;;;;;15.60;10.38;;;;;;;9.29;100.00;93054.91;5027134;28;20053;-81
2021/11/23 00:23:16;;;;;;;15.07;11.00;;;;;;;9.19;100.00;93042.56;5027282;28;20247;-80
2021/11/23 00:25:45;;;;;;;17.58;9.85;;;;;;;9.25;100.00;93051.19;5027198;28;20531;-81
2021/11/23 00:28:12;;;;;;;16.10;11.15;;;;;;;9.24;100.00;93052.19;5027332;28;20141;-81
2021/11/23 00:30:40;;;;;;;18.65;11.00;;;;;;;9.20;100.00;93051.00;5027285;28;20068;-80
2021/11/23 00:33:07;;;;;;;18.30;11.50;;;;;;;9.09;100.00;93040.41;5027286;28;20060;-80
2021/11/23 00:35:34;;;;;;;16.08;10.65;;;;;;;9.06;100.00;93048.53;5027027;28;20497;-81
2021/11/23 00:38:02;;;;;;;22.15;12.10;;;;;;;9.03;100.00;93038.66;5027162;28;20436;-81
2021/11/23 00:40:28;;;;;;;16.10;11.02;;;;;;;9.05;100.00;93044.38;5026776;28;20045;-80
2021/11/23 00:43:03;;;;;;;18.60;12.23;;;;;;;9.01;100.00;93047.53;5027237;28;20053;-80
2021/11/23 00:45:30;;;;;;;27.05;15.30;;;;;;;8.95;100.00;93049.16;5026845;28;20532;-80
2021/11/23 00:47:57;;;;;;;28.38;17.45;;;;;;;8.89;100.00;93034.59;5026708;28;20045;-80
2021/11/23 00:50:24;;;;;;;30.85;18.85;;;;;;;8.93;100.00;93041.66;5026556;28;20128;-80
2021/11/23 00:52:51;;;;;;;26.20;18.52;;;;;;;8.95;100.00;93039.69;5026927;28;20418;-80
2021/11/23 00:55:18;;;;;;;28.17;20.15;;;;;;;8.97;100.00;93046.41;5027452;28;20072;-79
2021/11/23 00:57:44;;;;;;;31.83;21.02;;;;;;;8.99;100.00;93041.84;5027972;28;20049;-79
2021/11/23 01:00:14;;;;;;;27.52;19.30;;;;;;;8.95;100.00;93036.34;5027389;28;20764;-80
2021/11/23 01:02:41;;;;;;;26.75;19.33;;;;;;;9.07;100.00;93044.16;5026553;28;20049;-79
2021/11/23 01:05:10;;;;;;;27.52;19.70;;;;;;;9.07;100.00;93041.59;5026667;28;20049;-80
2021/11/23 01:07:37;;;;;;;26.00;19.35;;;;;;;9.11;100.00;93042.00;5026080;28;20049;-80
2021/11/23 01:10:06;;;;;;;27.63;19.17;;;;;;;9.17;100.00;93041.19;5026054;28;20045;-80
2021/11/23 01:12:33;;;;;;;28.75;19.50;;;;;;;9.17;100.00;93046.31;5026808;28;20646;-80
2021/11/23 01:15:00;;;;;;;62.55;32.70;;;;;;;9.19;100.00;93052.81;5026138;28;20065;-80
2021/11/23 01:17:29;;;;;;;31.00;21.17;;;;;;;9.20;100.00;93056.13;5026297;28;20901;-80
2021/11/23 01:19:56;;;;;;;28.92;19.23;;;;;;;9.21;100.00;93055.13;5026385;28;20053;-81
2021/11/23 01:22:23;;;;;;;26.75;17.15;;;;;;;9.16;100.00;93047.31;5026662;28;20041;-81
2021/11/23 01:24:49;;;;;;;25.13;15.52;;;;;;;9.07;100.00;93032.16;5026675;28;20049;-81
2021/11/23 01:27:16;;;;;;;23.08;15.40;;;;;;;9.22;100.00;93056.72;5026297;28;20560;-81
2021/11/23 01:29:43;;;;;;;25.45;15.77;;;;;;;9.27;100.00;93056.13;5026561;28;20045;-80
2021/11/23 01:32:10;;;;;;;25.88;16.20;;;;;;;9.25;100.00;93058.88;5026360;28;20053;-81
2021/11/23 01:34:38;;;;;;;25.55;16.73;;;;;;;9.29;100.00;93059.25;5026535;28;20056;-79
2021/11/23 01:37:05;;;;;;;21.13;14.45;;;;;;;9.04;100.00;93031.78;5026230;28;20115;-80
2021/11/23 01:39:32;;;;;;;23.33;14.85;;;;;;;9.23;100.00;93061.63;5026273;28;20045;-79
2021/11/23 01:41:59;;;;;;;21.95;13.63;;;;;;;9.26;100.00;93057.09;5026174;28;20045;-79
2021/11/23 01:44:26;;;;;;;20.80;13.88;;;;;;;9.23;100.00;93053.94;5025832;28;20053;-79
2021/11/23 01:46:53;;;;;;;20.60;13.70;;;;;;;9.28;100.00;93061.03;5025831;28;20063;-79
2021/11/23 01:49:20;;;;;;;17.45;12.35;;;;;;;9.27;100.00;93053.53;5026120;28;20046;-79
2021/11/23 01:51:49;;;;;;;18.33;13.20;;;;;;;9.18;100.00;93045.31;5025580;28;20060;-78
2021/11/23 01:54:16;;;;;;;22.95;13.68;;;;;;;9.31;100.00;93054.72;5026038;28;20050;-78
2021/11/23 01:56:43;;;;;;;21.48;15.00;;;;;;;9.28;100.00;93053.34;5025589;28;20412;-80
2021/11/23 01:59:10;;;;;;;23.23;14.60;;;;;;;9.17;100.00;93051.44;5022360;28;20045;-79
2021/11/23 02:01:37;;;;;;;27.67;17.13;;;;;;;9.16;100.00;93055.75;5024179;28;20072;-80
2021/11/23 02:04:05;;;;;;;24.35;16.65;;;;;;;8.93;100.00;93043.44;5024442;28;20058;-80
2021/11/23 02:06:32;;;;;;;22.42;15.35;;;;;;;8.99;100.00;93060.56;5025477;28;20060;-79
2021/11/23 02:09:00;;;;;;;25.02;18.33;;;;;;;8.93;100.00;93046.00;5025409;28;20046;-79
2021/11/23 02:11:28;;;;;;;29.77;19.65;;;;;;;8.89;100.00;93055.88;5024968;28;20049;-78
2021/11/23 02:13:55;;;;;;;37.92;23.15;;;;;;;8.84;100.00;93050.56;5025587;28;20047;-78
2021/11/23 02:16:23;;;;;;;36.60;22.45;;;;;;;8.86;100.00;93052.94;5025007;28;20057;-78
2021/11/23 02:18:51;;;;;;;42.25;25.75;;;;;;;8.84;100.00;93049.78;5024636;28;20045;-78
2021/11/23 02:21:19;;;;;;;31.63;20.38;;;;;;;8.92;100.00;93052.13;5024834;28;20056;-78
2021/11/23 02:23:47;;;;;;;28.48;16.35;;;;;;;8.65;100.00;93019.69;5025393;28;20041;-77
2021/11/23 02:26:14;;;;;;;28.98;17.40;;;;;;;8.98;100.00;93058.22;5025332;28;20460;-77
2021/11/23 02:28:40;;;;;;;26.50;16.70;;;;;;;9.04;100.00;93052.28;5025139;28;20072;-77
2021/11/23 02:31:08;;;;;;;28.60;18.80;;;;;;;9.08;100.00;93043.97;5024717;28;20499;-77
2021/11/23 02:33:36;;;;;;;26.50;17.00;;;;;;;9.12;100.00;93041.78;5025603;28;20805;-77
2021/11/23 02:36:05;;;;;;;23.42;14.10;;;;;;;9.25;100.00;93045.28;5025042;28;20054;-77
2021/11/23 02:38:35;;;;;;;25.05;15.70;;;;;;;9.26;100.00;93044.28;5024913;28;20452;-77
2021/11/23 02:41:02;;;;;;;25.90;15.75;;;;;;;9.31;100.00;93050.34;5024978;28;20513;-77
2021/11/23 02:43:29;;;;;;;23.98;15.50;;;;;;;9.33;100.00;93040.72;5025218;28;20053;-77
2021/11/23 02:45:57;;;;;;;23.23;15.40;;;;;;;9.39;100.00;93048.56;5024958;28;20052;-77
2021/11/23 02:48:24;;;;;;;27.40;18.42;;;;;;;9.33;100.00;93045.84;5025194;28;20160;-77
2021/11/23 02:50:56;;;;;;;30.58;21.35;;;;;;;9.32;100.00;93048.59;5024625;28;20402;-77
2021/11/23 02:53:24;;;;;;;38.17;23.60;;;;;;;9.35;100.00;93055.84;5024974;28;20063;-77
2021/11/23 02:55:53;;;;;;;36.15;22.40;;;;;;;9.33;100.00;93053.53;5025369;28;20048;-77
2021/11/23 02:58:21;;;;;;;35.33;22.55;;;;;;;9.19;100.00;93046.88;5025031;28;20042;-77
2021/11/23 03:00:49;;;;;;;32.92;21.40;;;;;;;9.14;100.00;93055.19;5024966;28;20042;-77
2021/11/23 03:03:16;;;;;;;39.33;24.23;;;;;;;8.77;100.00;93063.41;5024668;28;20057;-77
2021/11/23 03:05:43;;;;;;;41.70;26.35;;;;;;;8.66;100.00;93062.25;5024948;28;20052;-80
2021/11/23 03:08:11;;;;;;;42.08;27.30;;;;;;;8.59;100.00;93046.13;5024951;28;20390;-80
2021/11/23 03:10:38;;;;;;;44.08;28.98;;;;;;;8.28;100.00;93029.59;5024397;28;20057;-79
2021/11/23 03:13:07;;;;;;;49.67;30.60;;;;;;;8.17;100.00;93059.16;5024725;28;20049;-79
2021/11/23 03:15:34;;;;;;;57.72;35.92;;;;;;;8.04;100.00;93047.16;5024811;28;20412;-81
2021/11/23 03:18:01;;;;;;;48.92;31.45;;;;;;;8.04;100.00;93065.06;5024686;28;20697;-78
2021/11/23 03:20:29;;;;;;;54.17;31.75;;;;;;;7.76;100.00;93045.56;5002837;28;20473;-77
2021/11/23 03:22:58;;;;;;;50.25;31.67;;;;;;;7.83;100.00;93066.81;5024529;28;20049;-79
2021/11/23 03:25:26;;;;;;;47.33;30.15;;;;;;;7.59;100.00;93051.06;5024320;28;20056;-77
2021/11/23 03:27:54;;;;;;;53.65;31.95;;;;;;;7.59;100.00;93071.50;5024481;28;20064;-78
2021/11/23 03:30:26;;;;;;;60.72;35.40;;;;;;;7.52;100.00;93073.28;5024670;28;20080;-78
2021/11/23 03:32:55;;;;;;;50.90;32.28;;;;;;;7.42;100.00;93078.78;5028379;28;20583;-78
2021/11/23 03:35:23;;;;;;;54.30;31.13;;;;;;;7.40;100.00;93082.50;5028908;28;20053;-77
2021/11/23 03:37:51;;;;;;;50.45;30.95;;;;;;;7.53;100.00;93071.50;5028736;28;20049;-77
2021/11/23 03:40:19;;;;;;;52.42;31.63;;;;;;;7.66;100.00;93076.66;5029152;28;20132;-77
2021/11/23 03:42:46;;;;;;;47.55;28.52;;;;;;;7.70;100.00;93072.72;5028180;28;20060;-77
2021/11/23 03:45:13;;;;;;;43.08;28.95;;;;;;;7.80;100.00;93077.44;5027759;28;20060;-77
2021/11/23 03:47:42;;;;;;;43.05;31.75;;;;;;;7.94;100.00;93077.44;5028140;28;20056;-81
2021/11/23 03:50:11;;;;;;;42.20;30.52;;;;;;;7.98;100.00;93087.09;5028070;28;20041;-81
2021/11/23 03:52:39;;;;;;;42.58;27.83;;;;;;;8.08;100.00;93076.47;5028274;28;20045;-81
2021/11/23 03:55:09;;;;;;;46.63;28.83;;;;;;;7.99;100.00;93087.88;5027927;28;20136;-81
2021/11/23 03:57:36;;;;;;;43.25;25.63;;;;;;;7.93;100.00;93075.88;5027947;28;20776;-82
2021/11/23 04:00:04;;;;;;;37.25;25.65;;;;;;;8.02;100.00;93085.72;5027897;28;20050;-82
2021/11/23 04:02:31;;;;;;;43.53;28.90;;;;;;;8.04;100.00;93070.19;5027017;28;20061;-82
2021/11/23 04:04:59;;;;;;;45.55;30.05;;;;;;;8.17;100.00;93087.28;5027816;28;20053;-82
2021/11/23 04:07:26;;;;;;;42.97;30.05;;;;;;;8.24;100.00;93085.50;5028038;28;20046;-82
2021/11/23 04:09:53;;;;;;;40.38;25.95;;;;;;;8.27;100.00;93087.69;5005564;28;20057;-81
2021/11/23 04:12:20;;;;;;;36.40;22.58;;;;;;;8.28;100.00;93088.47;4846178;28;5000686;-82
2021/11/23 04:14:47;;;;;;;33.22;21.88;;;;;;;8.31;100.00;93094.94;5027540;28;20045;-81
2021/11/23 04:17:14;;;;;;;33.63;20.85;;;;;;;8.23;100.00;93090.81;5027413;28;20140;-79
2021/11/23 04:19:41;;;;;;;30.40;19.67;;;;;;;8.08;100.00;93094.38;5027455;28;20060;-79
2021/11/23 04:22:09;;;;;;;31.50;19.90;;;;;;;7.72;100.00;93062.28;5027038;28;20072;-78
2021/11/23 04:24:36;;;;;;;34.53;20.52;;;;;;;7.91;100.00;93083.75;5027741;28;20045;-78
2021/11/23 04:27:04;;;;;;;37.65;22.13;;;;;;;7.99;100.00;93087.88;5027290;28;20065;-77
2021/11/23 04:29:30;;;;;;;36.88;22.23;;;;;;;8.05;100.00;93089.66;5027449;28;20048;-77
2021/11/23 04:31:58;;;;;;;77.53;37.13;;;;;;;8.18;100.00;93103.44;5026953;28;20057;-79
2021/11/23 04:34:25;;;;;;;49.70;28.65;;;;;;;8.23;100.00;93106.97;5027279;28;20045;-78
2021/11/23 04:36:52;;;;;;;41.80;24.83;;;;;;;8.18;100.00;93098.31;5022785;28;20103;-78
2021/11/23 04:39:20;;;;;;;46.25;26.75;;;;;;;8.28;100.00;93101.25;5024442;28;20103;-79
2021/11/23 04:41:47;;;;;;;35.53;23.42;;;;;;;8.34;100.00;93105.56;5026969;28;20124;-78
2021/11/23 04:44:14;;;;;;;37.58;24.17;;;;;;;8.38;100.00;93096.53;5026542;28;20052;-78
2021/11/23 04:46:41;;;;;;;37.55;26.08;;;;;;;8.40;100.00;93094.56;5027039;28;20060;-78
2021/11/23 04:49:08;;;;;;;33.22;21.92;;;;;;;8.38;100.00;93095.75;5026756;28;20120;-79
2021/11/23 04:51:35;;;;;;;33.35;20.85;;;;;;;8.36;100.00;93093.38;5027168;28;20076;-80
2021/11/23 04:54:03;;;;;;;36.80;21.55;;;;;;;8.52;100.00;93111.91;5026993;28;20659;-79
2021/11/23 04:56:31;;;;;;;36.45;23.58;;;;;;;8.31;100.00;93120.53;5026840;28;20118;-78
2021/11/23 04:58:58;;;;;;;32.35;20.67;;;;;;;8.12;100.00;93118.59;5026644;28;20049;-78
2021/11/23 05:01:25;;;;;;;32.38;22.05;;;;;;;7.98;100.00;93117.81;5026819;28;20053;-78
2021/11/23 05:03:54;;;;;;;36.10;24.50;;;;;;;7.71;100.00;93083.72;5026773;28;20054;-79
2021/11/23 05:06:21;;;;;;;43.17;26.33;;;;;;;7.95;100.00;93122.50;5006000;28;20092;-79
2021/11/23 05:08:48;;;;;;;52.50;32.45;;;;;;;7.90;100.00;93123.09;5026115;28;20053;-79
2021/11/23 05:11:17;;;;;;;52.65;32.30;;;;;;;7.79;100.00;93091.22;5026527;28;20072;-79
2021/11/23 05:13:45;;;;;;;49.40;31.33;;;;;;;7.91;100.00;93131.56;5026321;28;20152;-79
2021/11/23 05:16:12;;;;;;;57.95;33.22;;;;;;;7.84;100.00;93127.22;5026219;28;20037;-79
2021/11/23 05:18:39;;;;;;;48.70;30.23;;;;;;;7.86;100.00;93134.69;5026143;28;20052;-79
2021/11/23 05:21:06;;;;;;;46.08;28.42;;;;;;;7.82;100.00;93129.19;5026133;28;20051;-80
2021/11/23 05:23:33;;;;;;;50.03;32.05;;;;;;;7.73;100.00;93123.47;5026415;28;20119;-80
2021/11/23 05:26:00;;;;;;;45.60;26.75;;;;;;;7.59;100.00;93134.66;5026221;28;20072;-80
2021/11/23 05:28:27;;;;;;;67.43;36.75;;;;;;;7.58;100.00;93133.84;5025922;28;20492;-80
2021/11/23 05:30:55;;;;;;;49.67;31.17;;;;;;;7.66;100.00;93132.88;5026010;28;20059;-81
2021/11/23 05:33:23;;;;;;;53.00;30.95;;;;;;;7.69;100.00;93137.59;5015298;28;20038;-80
2021/11/23 05:35:51;;;;;;;43.10;29.13;;;;;;;7.65;100.00;93144.09;5024088;28;20085;-81
2021/11/23 05:38:19;;;;;;;52.03;29.63;;;;;;;7.45;100.00;93124.38;5026153;28;20049;-82
2021/11/23 05:40:47;;;;;;;50.97;30.48;;;;;;;7.66;100.00;93142.31;5025607;28;20053;-81
2021/11/23 05:43:14;;;;;;;45.33;27.33;;;;;;;7.60;100.00;93149.78;5025960;28;20422;-81
2021/11/23 05:45:41;;;;;;;52.60;27.77;;;;;;;7.57;100.00;93145.06;5026019;28;20045;-81
2021/11/23 05:48:09;;;;;;;54.85;33.28;;;;;;;7.52;100.00;93133.81;5025521;28;20129;-80
2021/11/23 05:50:36;;;;;;;63.75;36.67;;;;;;;7.56;100.00;93145.25;5025669;28;20053;-80
2021/11/23 05:53:04;;;;;;;59.85;33.97;;;;;;;7.61;100.00;93151.38;5025799;28;20050;-80
2021/11/23 05:55:32;;;;;;;55.35;31.48;;;;;;;7.66;100.00;93155.09;5025297;28;20048;-81
2021/11/23 05:57:59;;;;;;;44.60;28.08;;;;;;;7.58;100.00;93164.53;5025208;28;20095;-80
2021/11/23 06:00:27;;;;;;;49.17;30.13;;;;;;;6.95;100.00;93063.28;5025458;28;20053;-80
2021/11/23 06:02:54;;;;;;;59.08;33.83;;;;;;;7.51;100.00;93145.03;5025060;28;20053;-81
2021/11/23 06:05:23;;;;;;;71.93;40.60;;;;;;;7.71;100.00;93166.34;5025691;28;20073;-81
2021/11/23 06:07:50;;;;;;;60.75;34.45;;;;;;;7.75;100.00;93171.84;5025056;28;20045;-81
2021/11/23 06:10:17;;;;;;;57.55;32.15;;;;;;;7.68;100.00;93153.16;5025564;28;20054;-81
2021/11/23 06:12:44;;;;;;;47.22;28.20;;;;;;;7.83;100.00;93174.22;5025364;28;20053;-82
2021/11/23 06:15:13;;;;;;;56.13;35.00;;;;;;;8.08;100.00;93190.78;5025771;28;20409;-81
2021/11/23 06:17:41;;;;;;;52.72;32.85;;;;;;;8.17;100.00;93187.09;5026808;28;20053;-81
2021/11/23 06:20:11;;;;;;;39.65;25.73;;;;;;;8.00;100.00;93158.50;5028692;28;20057;-81
2021/11/23 06:22:40;;;;;;;37.72;25.30;;;;;;;8.21;100.00;93190.84;5031738;28;20049;-82
2021/11/23 06:25:08;;;;;;;37.70;26.50;;;;;;;8.23;100.00;93193.19;5026485;28;20048;-82
2021/11/23 06:27:36;;;;;;;35.70;24.45;;;;;;;8.14;100.00;93175.47;5029079;28;20055;-81
2021/11/23 06:30:05;;;;;;;30.48;20.00;;;;;;;8.25;100.00;93198.91;5028600;28;20044;-81
2021/11/23 06:32:32;;;;;;;26.33;18.23;;;;;;;8.27;100.00;93199.50;5028531;28;20081;-81
2021/11/23 06:34:59;;;;;;;27.40;18.38;;;;;;;8.33;100.00;93205.59;5028657;28;20053;-82
2021/11/23 06:37:26;;;;;;;30.77;19.27;;;;;;;8.32;100.00;93197.13;5028616;28;20045;-82
2021/11/23 06:39:54;;;;;;;33.60;19.67;;;;;;;8.29;100.00;93200.88;5030769;28;20419;-82
2021/11/23 06:42:21;;;;;;;30.95;18.02;;;;;;;8.20;100.00;93211.50;5028596;28;20042;-82
2021/11/23 06:44:48;;;;;;;22.58;14.55;;;;;;;8.10;100.00;93214.44;5028265;28;20523;-82
2021/11/23 06:47:15;;;;;;;28.15;16.90;;;;;;;7.98;100.00;93216.75;5028721;28;20491;-82
2021/11/23 06:49:42;;;;;;;30.63;18.17;;;;;;;7.97;100.00;93210.84;5037134;28;20036;-82
2021/11/23 06:52:09;;;;;;;28.63;17.90;;;;;;;8.03;100.00;93219.53;5038689;28;20136;-82
2021/11/23 06:54:37;;;;;;;20.60;14.55;;;;;;;8.14;100.00;93233.50;5032247;28;20437;-81
2021/11/23 06:57:05;;;;;;;22.52;14.73;;;;;;;8.06;100.00;93231.16;5029128;28;20080;-81
2021/11/23 06:59:32;;;;;;;20.65;14.95;;;;;;;8.08;100.00;93237.66;5028714;28;20048;-82
2021/11/23 07:01:59;;;;;;;16.52;10.95;;;;;;;8.13;100.00;93226.81;5028855;28;20045;-82
2021/11/23 07:04:27;;;;;;;13.30;10.13;;;;;;;8.12;100.00;93238.03;5029347;28;20053;-82
2021/11/23 07:06:54;;;;;;;10.55;8.05;;;;;;;8.11;100.00;93242.38;5031215;28;20049;-81
2021/11/23 07:09:20;;;;;;;11.25;7.88;;;;;;;7.95;100.00;93235.03;5033100;28;20049;-82
2021/11/23 07:11:47;;;;;;;9.95;7.82;;;;;;;8.12;100.00;93253.41;5032849;28;20053;-82
2021/11/23 07:14:16;;;;;;;12.45;9.05;;;;;;;8.08;100.00;93257.31;5032686;28;20045;-81
2021/11/23 07:16:43;;;;;;;11.30;9.18;;;;;;;7.93;100.00;93252.34;5033010;28;20068;-81
2021/11/23 07:19:10;;;;;;;10.20;8.27;;;;;;;7.86;100.00;93263.34;5032970;28;20057;-81
2021/11/23 07:21:37;;;;;;;11.63;9.10;;;;;;;7.93;100.00;93268.50;5032908;28;20444;-82
2021/11/23 07:24:04;;;;;;;11.52;8.60;;;;;;;7.84;100.00;93265.31;5032435;28;20045;-81
2021/11/23 07:26:32;;;;;;;16.13;12.60;;;;;;;8.00;100.00;93278.75;5032564;28;20061;-82
2021/11/23 07:28:59;;;;;;;11.35;8.80;;;;;;;7.93;100.00;93260.81;5032759;28;20064;-82
2021/11/23 07:31:28;;;;;;;8.18;7.18;;;;;;;7.87;100.00;93264.94;5032829;28;20064;-81
2021/11/23 07:33:56;;;;;;;8.07;6.97;;;;;;;8.02;100.00;93289.59;5032645;28;20049;-81
2021/11/23 07:36:24;;;;;;;9.20;6.95;;;;;;;8.08;100.00;93290.56;5032637;28;20049;-81
2021/11/23 07:38:53;;;;;;;8.88;6.63;;;;;;;7.84;100.00;93259.41;5032133;28;20052;-81
2021/11/23 07:41:20;;;;;;;8.65;6.68;;;;;;;7.94;100.00;93274.38;5032219;28;20053;-81
2021/11/23 07:43:47;;;;;;;10.27;7.53;;;;;;;8.21;100.00;93302.63;5032524;28;20049;-81
2021/11/23 07:46:15;;;;;;;7.47;5.43;;;;;;;8.08;100.00;93276.03;5032354;28;20398;-82
2021/11/23 07:48:44;;;;;;;9.98;7.07;;;;;;;8.16;100.00;93280.19;5028592;28;20057;-82
2021/11/23 07:51:11;;;;;;;6.50;5.63;;;;;;;8.22;100.00;93307.56;5030384;28;20072;-82
2021/11/23 07:53:38;;;;;;;7.28;5.18;;;;;;;8.08;100.00;93293.94;5031689;28;20052;-82
2021/11/23 07:56:05;;;;;;;7.43;6.32;;;;;;;8.17;100.00;93309.91;5032211;28;20076;-81
2021/11/23 07:58:33;;;;;;;8.90;6.70;;;;;;;8.08;100.00;93313.59;5032322;28;20055;-82
2021/11/23 08:01:00;;;;;;;9.95;7.53;;;;;;;8.15;100.00;93322.09;5032144;28;20056;-82
2021/11/23 08:03:27;;;;;;;9.90;8.13;;;;;;;8.03;100.00;93288.59;5031690;28;20058;-82
2021/11/23 08:05:55;;;;;;;10.95;7.85;;;;;;;8.18;100.00;93318.38;5031676;28;20045;-82
2021/11/23 08:08:22;;;;;;;8.25;6.93;;;;;;;8.03;100.00;93326.97;5031790;28;20065;-82
2021/11/23 08:10:49;;;;;;;8.73;6.10;;;;;;;7.56;100.00;93278.97;5031590;28;20045;-81
2021/11/23 08:13:17;;;;;;;8.32;7.40;;;;;;;7.92;100.00;93319.84;5031798;28;20386;-82
2021/11/23 08:15:44;;;;;;;6.78;6.00;;;;;;;7.78;100.00;93319.75;5031891;28;20460;-82
2021/11/23 08:18:12;;;;;;;10.70;8.88;;;;;;;7.60;100.00;93279.38;5030309;28;20416;-82
2021/11/23 08:20:39;;;;;;;8.50;7.65;;;;;;;7.75;100.00;93303.06;5031863;28;20052;-83
2021/11/23 08:23:07;;;;;;;8.77;7.80;;;;;;;8.01;100.00;93324.59;5031888;28;20056;-82
2021/11/23 08:25:34;;;;;;;8.07;6.80;;;;;;;8.18;100.00;93315.81;5031532;28;20041;-81
2021/11/23 08:28:01;;;;;;;8.73;7.68;;;;;;;8.09;100.00;93315.16;5031602;28;20050;-81
2021/11/23 08:30:28;;;;;;;7.63;6.88;;;;;;;8.19;100.00;93310.50;5032037;28;20049;-82
2021/11/23 08:32:55;;;;;;;6.40;5.80;;;;;;;8.25;100.00;93301.25;5030989;28;20042;-82
2021/11/23 08:35:22;;;;;;;7.05;6.35;;;;;;;8.08;100.00;93272.66;5031737;28;20057;-82
2021/11/23 08:37:49;;;;;;;7.60;6.75;;;;;;;8.48;100.00;93323.19;5031930;28;20061;-81
2021/11/23 08:40:17;;;;;;;7.65;6.60;;;;;;;8.14;100.00;93323.88;5032109;28;20444;-81
2021/11/23 08:42:46;;;;;;;8.57;7.40;;;;;;;8.14;100.00;93305.97;5031450;28;20049;-81
2021/11/23 08:45:13;;;;;;;8.82;7.03;;;;;;;8.12;100.00;93325.84;5031665;28;20091;-81
2021/11/23 08:47:40;;;;;;;9.85;8.57;;;;;;;8.06;100.00;93328.34;5031752;28;20049;-81
2021/11/23 08:50:09;;;;;;;9.88;8.00;;;;;;;7.77;100.00;93325.84;5032006;28;20077;-80
2021/11/23 08:52:37;;;;;;;18.50;12.38;;;;;;;7.38;100.00;93325.44;5030959;28;20049;-80
2021/11/23 08:55:05;;;;;;;14.52;10.57;;;;;;;7.25;100.00;93323.59;5030875;28;20093;-81
2021/11/23 08:57:33;;;;;;;17.90;12.55;;;;;;;7.04;100.00;93304.00;5031272;28;20129;-82
2021/11/23 09:00:17;;;;;;;17.42;11.82;;;;;;;7.15;100.00;93330.78;5030993;28;20053;-81
2021/11/23 09:02:47;;;;;;;11.32;9.80;;;;;;;7.04;100.00;93339.75;5030934;28;20648;-81
2021/11/23 09:05:16;;;;;;;13.35;10.35;;;;;;;6.94;100.00;93322.97;5030678;28;20078;-81
2021/11/23 09:07:43;;;;;;;20.10;15.65;;;;;;;6.97;100.00;93338.88;5030808;28;20464;-81
2021/11/23 09:10:17;;;;;;;11.23;9.68;;;;;;;6.93;100.00;93343.56;5030362;28;20046;-82
2021/11/23 09:12:45;;;;;;;12.98;10.20;;;;;;;6.87;100.00;93345.13;5030852;28;20088;-82
2021/11/23 09:15:13;;;;;;;18.55;12.73;;;;;;;6.69;100.00;93314.91;5031336;28;20486;-82
2021/11/23 09:17:41;;;;;;;11.50;9.73;;;;;;;6.88;100.00;93335.69;5030720;28;20053;-81
2021/11/23 09:20:09;;;;;;;14.90;11.18;;;;;;;6.87;100.00;93344.31;5030267;28;20166;-81
2021/11/23 09:22:36;;;;;;;23.38;14.63;;;;;;;6.48;100.00;93290.19;5030685;28;20049;-81
2021/11/23 09:25:03;;;;;;;25.90;15.20;;;;;;;6.82;100.00;93355.84;5030384;28;20432;-82
2021/11/23 09:27:30;;;;;;;12.68;10.23;;;;;;;6.68;100.00;93333.75;5030120;28;20413;-81
2021/11/23 09:29:59;;;;;;;16.90;13.52;;;;;;;6.50;100.00;93316.28;5029948;28;20064;-81
2021/11/23 09:32:26;;;;;;;16.83;12.38;;;;;;;6.61;100.00;93350.78;5030160;28;20057;-81
2021/11/23 09:34:53;;;;;;;20.98;17.75;;;;;;;6.58;100.00;93344.25;5030106;28;20049;-81
2021/11/23 09:37:20;;;;;;;15.48;11.55;;;;;;;6.61;100.00;93353.31;5030062;28;20056;-81
2021/11/23 09:39:47;;;;;;;13.05;10.27;;;;;;;6.55;100.00;93352.28;5029874;28;20049;-81
2021/11/23 09:42:14;;;;;;;15.50;11.18;;;;;;;6.46;100.00;93353.34;5030384;28;20049;-80
2021/11/23 09:44:43;;;;;;;17.85;13.20;;;;;;;6.39;100.00;93333.66;5030106;28;20053;-81
2021/11/23 09:47:13;;;;;;;25.45;17.10;;;;;;;6.55;100.00;93352.28;5029307;28;20041;-81
2021/11/23 09:49:40;;;;;;;15.88;12.65;;;;;;;6.55;100.00;93350.53;5030274;28;20057;-80
2021/11/23 09:52:08;;;;;;;17.17;13.50;;;;;;;6.39;100.00;93337.97;5029828;28;20060;-81
2021/11/23 09:54:35;;;;;;;22.58;16.90;;;;;;;6.24;100.00;93313.28;5030360;28;20525;-80
2021/11/23 09:57:02;;;;;;;26.30;19.08;;;;;;;6.62;100.00;93347.25;5030680;28;20500;-81
2021/11/23 09:59:29;;;;;;;20.60;16.33;;;;;;;6.53;100.00;93342.25;5029591;28;20049;-81
2021/11/23 10:01:58;;;;;;;14.30;12.02;;;;;;;6.55;100.00;93347.97;5029681;28;20496;-80
2021/11/23 10:04:29;;;;;;;20.20;15.02;;;;;;;6.52;100.00;93345.75;5030012;28;20408;-80
2021/11/23 10:06:59;;;;;;;14.30;10.45;;;;;;;6.36;100.00;93316.16;5029696;28;20048;-80
2021/11/23 10:09:33;;;;;;;13.25;10.57;;;;;;;6.49;100.00;93330.03;5029685;28;20061;-80
2021/11/23 10:12:15;;;;;;;12.93;9.60;;;;;;;6.55;100.00;93339.50;5029625;28;20041;-80
2021/11/23 10:15:05;;;;;;;12.68;9.82;;;;;;;6.44;100.00;93317.03;5030193;28;20045;-80
2021/11/23 10:17:31;;;;;;;12.48;9.52;;;;;;;6.65;100.00;93344.31;5029643;28;20050;-80
2021/11/23 10:20:00;;;;;;;13.00;10.40;;;;;;;6.60;100.00;93344.06;5029472;28;20572;-80
2021/11/23 10:22:31;;;;;;;19.10;13.70;;;;;;;6.51;100.00;93318.66;5029742;28;20072;-80
2021/11/23 10:25:03;;;;;;;15.32;11.90;;;;;;;6.72;100.00;93334.16;5029372;28;20055;-80
2021/11/23 10:27:32;;;;;;;13.40;10.98;;;;;;;6.72;100.00;93337.53;5029574;28;20057;-80
2021/11/23 10:30:01;;;;;;;14.30;11.02;;;;;;;6.71;100.00;93333.38;5029696;28;20065;-80
2021/11/23 10:32:28;;;;;;;13.23;10.88;;;;;;;6.78;100.00;93336.00;5029272;28;20815;-80
2021/11/23 10:34:55;;;;;;;18.95;13.48;;;;;;;6.74;100.00;93335.56;5029631;28;20045;-80
2021/11/23 10:37:31;;;;;;;13.80;10.05;;;;;;;6.78;100.00;93338.53;5029462;28;20068;-80
2021/11/23 10:40:11;;;;;;;18.00;13.63;;;;;;;6.85;100.00;93338.59;5029161;28;20064;-80
2021/11/23 10:42:38;;;;;;;19.92;14.23;;;;;;;6.81;100.00;93331.31;5028897;28;20050;-80
2021/11/23 10:45:09;;;;;;;18.77;14.48;;;;;;;6.78;100.00;93330.88;5029369;28;20079;-80
2021/11/23 10:47:37;;;;;;;20.25;15.88;;;;;;;6.81;100.00;93330.53;5029073;28;20042;-80
2021/11/23 10:50:06;;;;;;;15.90;11.82;;;;;;;6.68;100.00;93323.53;5024261;28;20504;-80
2021/11/23 10:52:38;;;;;;;21.52;16.00;;;;;;;6.81;100.00;93333.84;5026872;28;20489;-80
2021/11/23 10:55:08;;;;;;;22.52;16.70;;;;;;;6.80;100.00;93327.19;5029199;28;20546;-80
2021/11/23 10:57:40;;;;;;;24.58;17.23;;;;;;;6.79;100.00;93338.38;5029204;28;20068;-80
2021/11/23 11:00:09;;;;;;;19.60;14.85;;;;;;;6.84;100.00;93335.25;5029194;28;20562;-79
2021/11/23 11:02:38;;;;;;;15.68;13.27;;;;;;;6.74;100.00;93319.44;5028949;28;20057;-79
2021/11/23 11:05:06;;;;;;;13.32;10.57;;;;;;;6.83;100.00;93331.13;5028775;28;20393;-80
2021/11/23 11:07:36;;;;;;;26.05;17.42;;;;;;;6.78;100.00;93318.13;5029127;28;20053;-80
2021/11/23 11:10:04;;;;;;;27.00;17.38;;;;;;;6.94;100.00;93337.50;5028704;28;20060;-79
2021/11/23 11:12:31;;;;;;;25.42;16.95;;;;;;;6.75;100.00;93337.13;5028881;28;20052;-80
2021/11/23 11:15:00;;;;;;;21.50;14.32;;;;;;;6.65;100.00;93336.66;5028759;28;20050;-79
2021/11/23 11:17:28;;;;;;;23.30;14.52;;;;;;;6.64;100.00;93340.19;5028749;28;20057;-80
2021/11/23 11:19:58;;;;;;;20.65;13.93;;;;;;;6.54;100.00;93341.25;5028629;28;20053;-80
2021/11/23 11:22:27;;;;;;;17.45;12.45;;;;;;;6.50;100.00;93340.06;5028980;28;20409;-79